Time;durP1;ratioP1;P1;durP2;ratioP2;P2;SDS_P1;SDS_P2;PMS_P1;PMS_P2;Temp;Humidity;BMP_temperature;BMP_pressure;BME280_temperature;BME280_humidity;BME280_pressure;Samples;Min_cycle;Max_cycle;Signal;HPM_P1;HPM_P2
2023/07/18 00:01:03;;;;;;;;;;;;;;;25.91;62.50;97074.51;584969;242;66836;-63
2023/07/18 00:03:30;;;;;;;;;;;;;;;25.91;64.05;97076.41;585050;242;66756;-63
2023/07/18 00:05:58;;;;;;;;;;;;;;;25.91;61.87;97068.33;585003;242;63054;-61
2023/07/18 00:08:25;;;;;;;;;;;;;;;25.91;65.01;97066.44;585004;242;68816;-61
2023/07/18 00:10:53;;;;;;;;;;;;;;;25.89;65.40;97065.96;584995;242;68546;-61
2023/07/18 00:13:20;;;;;;;;;;;;;;;25.88;65.60;97063.55;584932;242;62759;-61
2023/07/18 00:15:48;;;;;;;;;;;;;;;25.87;66.25;97065.45;585019;242;68626;-61
2023/07/18 00:18:15;;;;;;;;;;;;;;;25.85;65.50;97059.57;585045;242;68849;-61
2023/07/18 00:20:43;;;;;;;;;;;;;;;25.85;65.29;97056.88;585523;240;65046;-61
2023/07/18 00:23:10;;;;;;;;;;;;;;;25.85;66.50;97051.49;588953;241;68676;-61
2023/07/18 00:25:38;;;;;;;;;;;;;;;25.84;64.97;97041.05;588966;241;68683;-61
2023/07/18 00:28:09;;;;;;;;;;;;;;;25.83;62.66;97050.98;588956;241;65206;-61
2023/07/18 00:30:35;;;;;;;;;;;;;;;25.87;63.42;97043.13;589032;241;68566;-62
2023/07/18 00:33:03;;;;;;;;;;;;;;;25.85;65.03;97040.72;588946;241;68332;-63
2023/07/18 00:35:31;;;;;;;;;;;;;;;25.84;64.77;97041.83;588963;241;62765;-63
2023/07/18 00:37:59;;;;;;;;;;;;;;;25.85;64.61;97037.24;589003;241;68861;-63
2023/07/18 00:40:26;;;;;;;;;;;;;;;25.85;65.16;97038.03;588972;241;68848;-64
2023/07/18 00:42:54;;;;;;;;;;;;;;;25.85;65.47;97034.55;589036;241;65725;-63
2023/07/18 00:45:21;;;;;;;;;;;;;;;25.84;65.63;97031.06;589002;241;68359;-64
2023/07/18 00:47:49;;;;;;;;;;;;;;;25.83;65.66;97024.07;588932;241;66400;-63
2023/07/18 00:50:18;;;;;;;;;;;;;;;25.83;64.90;97024.07;588967;241;65003;-63
2023/07/18 00:52:47;;;;;;;;;;;;;;;25.84;65.30;97020.30;588925;237;68483;-63
2023/07/18 00:55:16;;;;;;;;;;;;;;;25.83;63.63;97018.69;589022;241;68243;-63
2023/07/18 00:57:45;;;;;;;;;;;;;;;25.84;64.91;97016.81;588957;241;62858;-63
2023/07/18 01:00:14;;;;;;;;;;;;;;;25.84;65.56;97020.30;588973;241;68568;-61
2023/07/18 01:02:43;;;;;;;;;;;;;;;25.83;65.75;97018.69;588910;241;66413;-61
2023/07/18 01:05:14;;;;;;;;;;;;;;;25.83;65.91;97012.48;588998;240;42331;-62
2023/07/18 01:07:42;;;;;;;;;;;;;;;25.82;66.37;97011.69;588926;241;66275;-62
2023/07/18 01:10:14;;;;;;;;;;;;;;;25.81;65.99;97007.41;588966;241;66269;-62
2023/07/18 01:12:42;;;;;;;;;;;;;;;25.82;65.97;97006.30;588908;241;65091;-62
2023/07/18 01:15:12;;;;;;;;;;;;;;;25.81;66.14;97004.72;588944;241;69065;-62
2023/07/18 01:17:40;;;;;;;;;;;;;;;25.81;66.18;97009.28;588916;239;65494;-62
2023/07/18 01:20:15;;;;;;;;;;;;;;;25.81;66.46;97009.28;588926;241;66112;-62
2023/07/18 01:22:38;;;;;;;;;;;;;;;25.81;66.02;97003.91;584852;239;68868;-64
2023/07/18 01:25:06;;;;;;;;;;;;;;;25.80;64.49;97005.02;584854;242;66418;-64
2023/07/18 01:27:36;;;;;;;;;;;;;;;25.81;64.44;96998.52;584989;242;63034;-64
2023/07/18 01:30:05;;;;;;;;;;;;;;;25.82;65.33;97005.52;584949;239;69832;-64
2023/07/18 01:32:33;;;;;;;;;;;;;;;25.81;65.08;97007.41;584894;242;68914;-64
2023/07/18 01:35:02;;;;;;;;;;;;;;;25.82;66.00;96998.23;585011;242;64976;-64
2023/07/18 01:37:30;;;;;;;;;;;;;;;25.82;66.53;96992.05;584984;242;68664;-64
2023/07/18 01:39:57;;;;;;;;;;;;;;;25.81;66.19;97002.03;584952;242;68699;-64
2023/07/18 01:42:25;;;;;;;;;;;;;;;25.81;66.69;96999.34;584955;242;64916;-64
2023/07/18 01:44:53;;;;;;;;;;;;;;;25.80;66.73;96992.34;584931;242;68683;-64
2023/07/18 01:47:20;;;;;;;;;;;;;;;25.81;68.99;96991.27;584959;242;68545;-64
2023/07/18 01:49:48;;;;;;;;;;;;;;;25.80;67.72;96991.55;585021;242;64877;-64
2023/07/18 01:52:15;;;;;;;;;;;;;;;25.79;66.32;96984.59;584953;242;68769;-64
2023/07/18 01:54:43;;;;;;;;;;;;;;;25.79;66.59;96990.77;585001;242;68203;-64
2023/07/18 01:57:11;;;;;;;;;;;;;;;25.81;70.03;96993.95;584952;242;65667;-64
2023/07/18 01:59:39;;;;;;;;;;;;;;;25.80;68.43;96986.17;584968;242;68506;-64
2023/07/18 02:02:07;;;;;;;;;;;;;;;25.79;67.73;96989.97;584985;242;69258;-64
2023/07/18 02:04:34;;;;;;;;;;;;;;;25.79;68.28;96990.77;584972;242;64945;-64
2023/07/18 02:07:02;;;;;;;;;;;;;;;25.78;67.09;96989.18;584979;242;66188;-62
2023/07/18 02:09:30;;;;;;;;;;;;;;;25.79;67.09;96995.36;584958;242;68893;-62
2023/07/18 02:11:58;;;;;;;;;;;;;;;25.80;70.54;96995.03;584938;242;65724;-62
2023/07/18 02:14:25;;;;;;;;;;;;;;;25.79;70.34;96990.77;584995;242;69298;-62
2023/07/18 02:16:53;;;;;;;;;;;;;;;25.78;68.93;96994.56;584981;242;65821;-62
2023/07/18 02:19:21;;;;;;;;;;;;;;;25.77;67.82;96998.34;584995;242;63683;-62
2023/07/18 02:21:48;;;;;;;;;;;;;;;25.78;69.32;96999.95;584943;239;68947;-62
2023/07/18 02:24:16;;;;;;;;;;;;;;;25.78;70.44;97002.64;584979;242;66204;-62
2023/07/18 02:26:43;;;;;;;;;;;;;;;25.78;70.77;96994.56;584941;242;63271;-62
2023/07/18 02:29:13;;;;;;;;;;;;;;;25.79;71.87;97006.13;584944;242;68928;-62
2023/07/18 02:31:41;;;;;;;;;;;;;;;25.76;69.54;96998.66;584350;242;66346;-62
2023/07/18 02:34:09;;;;;;;;;;;;;;;25.77;70.87;97003.72;582099;240;65081;-62
2023/07/18 02:36:36;;;;;;;;;;;;;;;25.75;69.63;97003.22;582567;240;68529;-62
2023/07/18 02:39:07;;;;;;;;;;;;;;;25.77;71.50;97009.11;582711;241;68532;-62
2023/07/18 02:41:33;;;;;;;;;;;;;;;25.76;69.63;97020.19;582486;240;63615;-62
2023/07/18 02:44:01;;;;;;;;;;;;;;;25.77;71.87;97017.18;583042;240;68967;-62
2023/07/18 02:46:30;;;;;;;;;;;;;;;25.77;71.52;97025.25;582373;243;68343;-61
2023/07/18 02:48:57;;;;;;;;;;;;;;;25.75;71.21;97026.66;582389;242;64811;-62
2023/07/18 02:51:25;;;;;;;;;;;;;;;25.74;70.78;97020.48;582657;239;65963;-62
2023/07/18 02:53:52;;;;;;;;;;;;;;;25.74;70.21;97025.86;582707;239;66277;-62
2023/07/18 02:56:20;;;;;;;;;;;;;;;25.75;70.53;97023.96;582386;242;64907;-62
2023/07/18 02:58:49;;;;;;;;;;;;;;;25.75;71.16;97022.06;582387;242;69428;-62
2023/07/18 03:01:19;;;;;;;;;;;;;;;25.73;70.66;97018.90;582673;241;66395;-62
2023/07/18 03:03:46;;;;;;;;;;;;;;;25.74;71.67;97023.17;582490;241;63620;-62
2023/07/18 03:06:15;;;;;;;;;;;;;;;25.73;71.21;97013.52;582637;240;66306;-62
2023/07/18 03:08:43;;;;;;;;;;;;;;;25.72;71.01;97014.59;582817;240;68145;-62
2023/07/18 03:11:10;;;;;;;;;;;;;;;25.73;71.42;97024.28;582539;240;62783;-62
2023/07/18 03:13:38;;;;;;;;;;;;;;;25.72;71.37;97022.67;582588;240;66191;-62
2023/07/18 03:16:07;;;;;;;;;;;;;;;25.71;71.30;97018.39;582837;240;68418;-62
2023/07/18 03:18:34;;;;;;;;;;;;;;;25.71;71.23;97020.30;582814;240;63094;-62
2023/07/18 03:21:02;;;;;;;;;;;;;;;25.71;71.06;97017.60;583962;240;66170;-62
2023/07/18 03:23:29;;;;;;;;;;;;;;;25.70;70.83;97030.27;588481;240;68366;-62
2023/07/18 03:25:57;;;;;;;;;;;;;;;25.70;71.63;97030.27;588451;240;64882;-62
2023/07/18 03:28:24;;;;;;;;;;;;;;;25.70;71.70;97019.50;588131;240;66630;-62
2023/07/18 03:30:52;;;;;;;;;;;;;;;25.71;72.11;97029.16;588374;240;66224;-61
2023/07/18 03:33:19;;;;;;;;;;;;;;;25.69;71.29;97023.27;588429;240;63013;-62
2023/07/18 03:35:47;;;;;;;;;;;;;;;25.69;71.85;97025.97;588255;240;66067;-62
2023/07/18 03:38:14;;;;;;;;;;;;;;;25.70;71.90;97027.58;588466;240;66367;-61
2023/07/18 03:40:42;;;;;;;;;;;;;;;25.69;72.14;97026.75;588361;240;65075;-62
2023/07/18 03:43:09;;;;;;;;;;;;;;;25.69;72.14;97028.66;588454;240;66597;-62
2023/07/18 03:45:37;;;;;;;;;;;;;;;25.69;72.58;97031.34;588497;240;66433;-62
2023/07/18 03:48:05;;;;;;;;;;;;;;;25.68;72.39;97027.86;588322;240;64848;-62
2023/07/18 03:50:32;;;;;;;;;;;;;;;25.67;72.07;97025.46;588975;240;68466;-62
2023/07/18 03:53:00;;;;;;;;;;;;;;;25.67;71.67;97025.46;588914;241;68481;-64
2023/07/18 03:55:27;;;;;;;;;;;;;;;25.68;72.00;97027.08;588934;241;63056;-64
2023/07/18 03:57:55;;;;;;;;;;;;;;;25.67;72.17;97025.46;589013;241;66406;-64
2023/07/18 04:00:22;;;;;;;;;;;;;;;25.67;71.98;97025.46;588896;241;66405;-64
2023/07/18 04:02:50;;;;;;;;;;;;;;;25.67;72.58;97034.36;588941;241;65139;-62
2023/07/18 04:05:20;;;;;;;;;;;;;;;25.66;72.16;97023.88;588928;241;68603;-62
2023/07/18 04:07:47;;;;;;;;;;;;;;;25.66;72.85;97024.67;588945;241;69140;-62
2023/07/18 04:10:15;;;;;;;;;;;;;;;25.65;71.58;97033.06;588992;241;65105;-61
2023/07/18 04:12:43;;;;;;;;;;;;;;;25.66;72.42;97026.57;588919;241;68453;-61
2023/07/18 04:15:11;;;;;;;;;;;;;;;25.66;72.14;97026.57;588917;241;68343;-61
2023/07/18 04:17:39;;;;;;;;;;;;;;;25.65;71.73;97025.78;588934;241;62913;-61
2023/07/18 04:20:06;;;;;;;;;;;;;;;25.66;71.86;97029.27;588915;241;68311;-61
2023/07/18 04:22:34;;;;;;;;;;;;;;;25.66;71.43;97023.88;585356;239;68135;-61
2023/07/18 04:25:01;;;;;;;;;;;;;;;25.67;72.49;97022.77;584986;242;64912;-61
2023/07/18 04:27:29;;;;;;;;;;;;;;;25.65;71.94;97015.02;584926;239;68591;-61
2023/07/18 04:29:56;;;;;;;;;;;;;;;25.67;72.27;97025.46;584961;242;66333;-61
2023/07/18 04:32:24;;;;;;;;;;;;;;;25.67;72.80;97026.28;584980;242;65055;-61
2023/07/18 04:34:52;;;;;;;;;;;;;;;25.67;72.41;97025.46;585006;242;68507;-61
2023/07/18 04:37:20;;;;;;;;;;;;;;;25.66;69.32;97023.88;584984;242;68451;-62
2023/07/18 04:39:48;;;;;;;;;;;;;;;25.67;70.79;97022.77;584956;242;63065;-61
2023/07/18 04:42:15;;;;;;;;;;;;;;;25.67;73.00;97028.97;584962;242;68564;-61
2023/07/18 04:44:43;;;;;;;;;;;;;;;25.67;72.77;97025.46;584994;242;68161;-62
2023/07/18 04:47:10;;;;;;;;;;;;;;;25.66;72.03;97031.95;584995;242;62912;-61
2023/07/18 04:49:39;;;;;;;;;;;;;;;25.65;72.37;97019.61;585058;242;65777;-61
2023/07/18 04:52:07;;;;;;;;;;;;;;;25.65;72.00;97017.70;584998;242;66214;-61
2023/07/18 04:54:35;;;;;;;;;;;;;;;25.64;72.08;97026.86;584936;242;65148;-61
2023/07/18 04:57:02;;;;;;;;;;;;;;;25.65;72.87;97024.98;585002;242;68392;-61
2023/07/18 04:59:30;;;;;;;;;;;;;;;25.63;72.22;97025.27;584985;242;68147;-61
2023/07/18 05:01:57;;;;;;;;;;;;;;;25.63;72.21;97027.17;585030;239;62959;-61
2023/07/18 05:04:25;;;;;;;;;;;;;;;25.64;72.29;97031.45;585002;242;68165;-61
2023/07/18 05:06:52;;;;;;;;;;;;;;;25.63;72.27;97025.27;585007;242;68134;-61
2023/07/18 05:09:20;;;;;;;;;;;;;;;25.63;72.04;97019.89;584940;242;65025;-61
2023/07/18 05:11:47;;;;;;;;;;;;;;;25.63;71.55;97029.87;585001;242;68495;-61
2023/07/18 05:14:15;;;;;;;;;;;;;;;25.65;73.09;97027.67;585020;242;68503;-61
2023/07/18 05:16:42;;;;;;;;;;;;;;;25.64;72.53;97036.83;584958;242;65094;-61
2023/07/18 05:19:10;;;;;;;;;;;;;;;25.62;72.48;97025.59;584933;242;68581;-61
2023/07/18 05:21:37;;;;;;;;;;;;;;;25.63;72.15;97032.55;584882;239;66180;-61
2023/07/18 05:24:05;;;;;;;;;;;;;;;25.63;71.40;97027.17;584965;239;63841;-61
2023/07/18 05:26:32;;;;;;;;;;;;;;;25.63;72.21;97029.87;584988;242;68523;-61
2023/07/18 05:29:00;;;;;;;;;;;;;;;25.63;72.45;97025.27;584987;242;68400;-63
2023/07/18 05:31:27;;;;;;;;;;;;;;;25.64;72.97;97031.45;584962;240;65080;-62
2023/07/18 05:33:57;;;;;;;;;;;;;;;25.62;71.50;97030.98;584970;242;68497;-62
2023/07/18 05:36:25;;;;;;;;;;;;;;;25.65;73.01;97038.44;584969;242;68027;-62
2023/07/18 05:38:52;;;;;;;;;;;;;;;25.64;72.64;97034.14;585027;242;65033;-62
2023/07/18 05:41:20;;;;;;;;;;;;;;;25.63;72.54;97041.42;584976;242;68492;-60
2023/07/18 05:43:47;;;;;;;;;;;;;;;25.62;72.33;97045.22;584961;242;68771;-60
2023/07/18 05:46:15;;;;;;;;;;;;;;;25.63;71.15;97051.39;584964;242;65132;-60
2023/07/18 05:48:42;;;;;;;;;;;;;;;25.62;68.75;97044.43;584918;242;68528;-60
2023/07/18 05:51:10;;;;;;;;;;;;;;;25.64;70.18;97048.39;585022;242;66342;-60
2023/07/18 05:53:38;;;;;;;;;;;;;;;25.63;70.58;97038.73;584890;242;62912;-60
2023/07/18 05:56:05;;;;;;;;;;;;;;;25.62;66.53;97047.91;584933;242;66436;-63
2023/07/18 05:58:33;;;;;;;;;;;;;;;25.64;66.46;97043.00;584297;242;66776;-60
2023/07/18 06:01:00;;;;;;;;;;;;;;;25.66;67.53;97043.51;584379;242;62904;-60
2023/07/18 06:03:28;;;;;;;;;;;;;;;25.68;70.52;97048.61;578594;245;66331;-60
2023/07/18 06:05:56;;;;;;;;;;;;;;;25.67;71.17;97037.05;578493;245;68715;-60
2023/07/18 06:08:23;;;;;;;;;;;;;;;25.65;70.59;97039.23;578487;245;65081;-60
2023/07/18 06:10:54;;;;;;;;;;;;;;;25.63;67.99;97033.34;578609;245;69199;-62
2023/07/18 06:13:22;;;;;;;;;;;;;;;25.64;67.86;97031.45;578567;245;66832;-61
2023/07/18 06:15:50;;;;;;;;;;;;;;;25.66;68.16;97029.27;578571;245;65162;-62
2023/07/18 06:18:17;;;;;;;;;;;;;;;25.68;65.32;97027.86;578654;245;68853;-63
2023/07/18 06:20:45;;;;;;;;;;;;;;;25.71;65.39;97031.06;579132;243;68684;-63
2023/07/18 06:23:14;;;;;;;;;;;;;;;25.72;65.18;97030.74;582305;242;65369;-63
2023/07/18 06:25:42;;;;;;;;;;;;;;;25.74;65.19;97023.17;582421;243;66599;-64
2023/07/18 06:28:11;;;;;;;;;;;;;;;25.76;65.43;97028.27;582272;243;68558;-64
2023/07/18 06:30:38;;;;;;;;;;;;;;;25.77;65.50;97027.16;582450;243;65299;-62
2023/07/18 06:33:06;;;;;;;;;;;;;;;25.78;66.40;97032.25;582390;243;68850;-62
2023/07/18 06:35:33;;;;;;;;;;;;;;;25.77;65.96;97038.71;582392;243;65696;-61
2023/07/18 06:38:01;;;;;;;;;;;;;;;25.77;66.19;97030.64;582408;243;65073;-61
2023/07/18 06:40:28;;;;;;;;;;;;;;;25.77;65.82;97040.61;582381;243;66719;-63
2023/07/18 06:42:56;;;;;;;;;;;;;;;25.82;66.55;97035.13;582356;243;66537;-62
2023/07/18 06:45:24;;;;;;;;;;;;;;;25.84;66.75;97031.06;582452;243;64924;-63
2023/07/18 06:47:51;;;;;;;;;;;;;;;25.88;67.09;97036.63;582314;243;68894;-62
2023/07/18 06:50:19;;;;;;;;;;;;;;;25.87;67.09;97029.67;582424;243;66334;-62
2023/07/18 06:52:47;;;;;;;;;;;;;;;25.89;67.35;97025.58;582407;243;62950;-62
2023/07/18 06:55:16;;;;;;;;;;;;;;;25.91;67.18;97033.33;582325;243;66622;-63
2023/07/18 06:57:43;;;;;;;;;;;;;;;25.91;67.16;97022.56;582351;243;66948;-63
2023/07/18 07:00:12;;;;;;;;;;;;;;;25.94;67.19;97026.55;582387;243;63928;-62
2023/07/18 07:02:40;;;;;;;;;;;;;;;25.94;67.54;97026.55;582350;243;68768;-62
2023/07/18 07:05:08;;;;;;;;;;;;;;;25.93;67.32;97024.97;582370;243;68822;-63
2023/07/18 07:07:36;;;;;;;;;;;;;;;25.94;67.43;97024.64;582378;243;63023;-64
2023/07/18 07:10:04;;;;;;;;;;;;;;;25.97;67.58;97018.66;582318;243;66842;-64
2023/07/18 07:12:32;;;;;;;;;;;;;;;25.98;67.14;97019.47;582419;243;68900;-63
2023/07/18 07:15:01;;;;;;;;;;;;;;;26.00;66.83;97022.64;582441;243;65222;-63
2023/07/18 07:17:28;;;;;;;;;;;;;;;26.01;66.76;97024.25;582342;243;66438;-64
2023/07/18 07:19:56;;;;;;;;;;;;;;;26.04;66.64;97023.64;582359;243;66643;-63
2023/07/18 07:22:23;;;;;;;;;;;;;;;26.05;66.59;97026.01;583066;242;64935;-65
2023/07/18 07:24:51;;;;;;;;;;;;;;;26.05;66.06;97022.52;583220;243;69103;-64
2023/07/18 07:27:19;;;;;;;;;;;;;;;26.08;66.34;97021.92;583265;243;68789;-65
2023/07/18 07:29:47;;;;;;;;;;;;;;;26.09;66.76;97026.22;583245;243;63878;-66
2023/07/18 07:32:14;;;;;;;;;;;;;;;26.11;66.44;97022.13;583215;243;68841;-66
2023/07/18 07:34:42;;;;;;;;;;;;;;;26.13;66.44;97027.98;583278;243;68534;-66
2023/07/18 07:37:10;;;;;;;;;;;;;;;26.13;66.66;97027.19;583231;243;64900;-66
2023/07/18 07:39:39;;;;;;;;;;;;;;;26.16;66.75;97023.88;583279;243;68825;-66
2023/07/18 07:42:06;;;;;;;;;;;;;;;26.14;66.62;97020.72;583247;243;68662;-67
2023/07/18 07:44:34;;;;;;;;;;;;;;;26.17;66.52;97024.70;583201;243;65043;-66
2023/07/18 07:47:01;;;;;;;;;;;;;;;26.17;66.92;97022.80;583224;243;68899;-66
2023/07/18 07:49:29;;;;;;;;;;;;;;;26.22;67.32;97017.30;583258;243;68755;-67
2023/07/18 07:51:56;;;;;;;;;;;;;;;26.22;67.59;97014.61;583170;243;62979;-67
2023/07/18 07:54:24;;;;;;;;;;;;;;;26.24;68.04;97009.69;583255;243;66614;-67
2023/07/18 07:56:51;;;;;;;;;;;;;;;26.26;68.34;97007.50;583230;243;68637;-67
2023/07/18 07:59:19;;;;;;;;;;;;;;;26.27;68.61;97009.11;583164;243;65218;-67
2023/07/18 08:01:47;;;;;;;;;;;;;;;26.27;68.48;97006.41;583296;243;66568;-67
2023/07/18 08:04:15;;;;;;;;;;;;;;;26.29;68.08;97020.35;583241;243;68446;-66
2023/07/18 08:06:42;;;;;;;;;;;;;;;26.30;67.85;97011.19;583228;243;62785;-67
2023/07/18 08:09:11;;;;;;;;;;;;;;;26.32;67.89;97003.57;576413;243;48533;-67
2023/07/18 08:11:39;;;;;;;;;;;;;;;26.32;67.52;97013.56;583248;243;69766;-67
2023/07/18 08:14:07;;;;;;;;;;;;;;;26.32;67.22;97014.34;583233;243;63176;-67
2023/07/18 08:16:34;;;;;;;;;;;;;;;26.34;66.98;97017.54;583235;243;68788;-67
2023/07/18 08:19:02;;;;;;;;;;;;;;;26.35;67.15;97008.38;583254;243;68487;-67
2023/07/18 08:21:29;;;;;;;;;;;;;;;26.35;66.97;97011.06;583208;243;65066;-66
2023/07/18 08:23:57;;;;;;;;;;;;;;;26.37;66.81;97016.14;578163;243;67294;-67
2023/07/18 08:26:25;;;;;;;;;;;;;;;26.38;66.36;97017.72;575811;244;68760;-66
2023/07/18 08:28:53;;;;;;;;;;;;;;;26.39;66.29;97008.55;575826;244;65213;-66
2023/07/18 08:31:20;;;;;;;;;;;;;;;26.40;66.14;97014.73;575798;244;69904;-66
2023/07/18 08:33:48;;;;;;;;;;;;;;;26.42;65.53;97016.02;575794;242;66523;-67
2023/07/18 08:36:15;;;;;;;;;;;;;;;26.44;65.29;97015.72;575745;245;65072;-66
2023/07/18 08:38:49;;;;;;;;;;;;;;;26.43;65.31;97022.20;576141;243;69221;-67
2023/07/18 08:41:15;;;;;;;;;;;;;;;26.43;65.50;97017.59;576066;243;68701;-67
2023/07/18 08:43:42;;;;;;;;;;;;;;;26.44;64.90;97016.52;575811;244;65178;-68
2023/07/18 08:46:10;;;;;;;;;;;;;;;26.44;64.61;97026.50;575852;244;68942;-68
2023/07/18 08:48:38;;;;;;;;;;;;;;;26.46;64.60;97018.88;575736;244;68788;-68
2023/07/18 08:51:06;;;;;;;;;;;;;;;26.45;64.59;97020.79;575829;244;65079;-66
2023/07/18 08:53:34;;;;;;;;;;;;;;;26.46;64.55;97016.19;575986;244;66601;-67
2023/07/18 08:56:08;;;;;;;;;;;;;;;26.47;64.27;97017.80;575744;244;68467;-67
2023/07/18 08:58:38;;;;;;;;;;;;;;;26.49;64.85;97026.35;575796;244;65125;-67
2023/07/18 09:01:13;;;;;;;;;;;;;;;26.51;65.12;97021.48;575833;244;68931;-67
2023/07/18 09:03:37;;;;;;;;;;;;;;;26.52;65.29;97021.20;575670;245;68605;-67
2023/07/18 09:06:07;;;;;;;;;;;;;;;26.54;65.28;97035.14;575817;244;63130;-67
2023/07/18 09:08:43;;;;;;;;;;;;;;;26.53;65.18;97030.86;575613;246;68631;-67
2023/07/18 09:11:12;;;;;;;;;;;;;;;26.55;65.23;97027.87;575762;244;68567;-68
2023/07/18 09:13:41;;;;;;;;;;;;;;;26.57;65.22;97022.95;575834;244;63104;-67
2023/07/18 09:16:12;;;;;;;;;;;;;;;26.56;65.45;97022.16;575773;243;68608;-68
2023/07/18 09:18:41;;;;;;;;;;;;;;;26.58;65.51;97026.47;575726;244;68484;-68
2023/07/18 09:21:11;;;;;;;;;;;;;;;26.58;65.52;97032.65;576513;242;65023;-66
2023/07/18 09:23:40;;;;;;;;;;;;;;;26.59;65.58;97033.44;583365;243;66811;-60
2023/07/18 09:26:11;;;;;;;;;;;;;;;26.59;65.39;97034.23;583242;242;69161;-67
2023/07/18 09:28:39;;;;;;;;;;;;;;;26.58;65.35;97035.34;578057;243;65084;-65
2023/07/18 09:31:18;;;;;;;;;;;;;;;26.59;65.53;97036.92;583266;243;66729;-61
2023/07/18 09:33:49;;;;;;;;;;;;;;;26.59;66.06;97044.22;583061;243;68673;-62
2023/07/18 09:36:18;;;;;;;;;;;;;;;26.59;65.85;97033.44;583382;243;62923;-67
2023/07/18 09:38:46;;;;;;;;;;;;;;;26.59;65.79;97036.13;583352;243;68844;-67
2023/07/18 09:41:18;;;;;;;;;;;;;;;26.57;65.45;97036.42;583312;242;68707;-66
2023/07/18 09:43:47;;;;;;;;;;;;;;;26.57;65.07;97036.42;583348;240;63126;-66
2023/07/18 09:46:15;;;;;;;;;;;;;;;26.59;64.91;97031.53;582485;240;68468;-67
2023/07/18 09:48:45;;;;;;;;;;;;;;;26.61;64.93;97036.63;582574;243;68618;-67
2023/07/18 09:51:14;;;;;;;;;;;;;;;26.61;64.82;97039.33;582461;242;63084;-66
2023/07/18 09:53:46;;;;;;;;;;;;;;;26.60;64.51;97030.45;582250;242;66669;-66
2023/07/18 09:56:15;;;;;;;;;;;;;;;26.62;64.77;97013.95;579548;243;68703;-66
2023/07/18 09:58:44;;;;;;;;;;;;;;;26.63;64.79;97035.22;582294;241;63773;-67
2023/07/18 10:01:13;;;;;;;;;;;;;;;26.64;64.84;97009.06;582523;243;66579;-59
2023/07/18 10:03:40;;;;;;;;;;;;;;;26.65;64.94;97018.72;582583;243;68311;-61
2023/07/18 10:06:10;;;;;;;;;;;;;;;26.65;64.62;97021.42;582568;243;65037;-62
2023/07/18 10:08:39;;;;;;;;;;;;;;;26.67;65.02;97022.70;582518;243;69537;-60
2023/07/18 10:11:11;;;;;;;;;;;;;;;26.67;65.19;97022.70;582541;243;68756;-59
2023/07/18 10:13:43;;;;;;;;;;;;;;;26.62;65.55;97028.22;582513;243;65178;-60
2023/07/18 10:16:15;;;;;;;;;;;;;;;26.58;65.64;97027.26;582436;243;69048;-61
2023/07/18 10:18:49;;;;;;;;;;;;;;;26.54;65.82;97024.36;580832;243;66575;-61
2023/07/18 10:21:30;;;;;;;;;;;;;;;26.52;65.89;97018.50;580503;242;62983;-62
2023/07/18 10:23:58;;;;;;;;;;;;;;;26.50;65.95;97014.48;580342;243;68821;-61
2023/07/18 10:26:32;;;;;;;;;;;;;;;26.49;66.04;97012.87;580395;243;68598;-61
2023/07/18 10:29:01;;;;;;;;;;;;;;;26.49;65.96;97015.58;580022;243;65082;-60
2023/07/18 10:31:30;;;;;;;;;;;;;;;26.47;66.02;97005.12;579565;243;66721;-61
2023/07/18 10:34:03;;;;;;;;;;;;;;;26.48;66.13;97005.91;576189;246;68441;-62
2023/07/18 10:36:30;;;;;;;;;;;;;;;26.53;66.13;97020.08;576133;246;65072;-60
2023/07/18 10:38:58;;;;;;;;;;;;;;;26.58;66.03;97021.87;576226;246;66594;-61
2023/07/18 10:41:25;;;;;;;;;;;;;;;26.62;65.66;97012.05;576203;246;68880;-62
2023/07/18 10:43:53;;;;;;;;;;;;;;;26.64;65.42;97009.84;579513;243;65145;-61
2023/07/18 10:46:21;;;;;;;;;;;;;;;26.64;64.75;97006.36;582060;243;69094;-62
2023/07/18 10:48:52;;;;;;;;;;;;;;;26.66;64.52;97004.95;580890;243;68551;-61
2023/07/18 10:51:19;;;;;;;;;;;;;;;26.68;64.57;97002.75;580481;243;65367;-61
2023/07/18 10:53:48;;;;;;;;;;;;;;;26.71;64.54;96993.22;579802;243;68818;-61
2023/07/18 10:56:20;;;;;;;;;;;;;;;26.71;64.50;97004.83;580487;242;68577;-61
2023/07/18 10:58:47;;;;;;;;;;;;;;;26.72;64.55;97006.41;579985;243;63056;-62
2023/07/18 11:01:15;;;;;;;;;;;;;;;26.73;64.65;97007.98;578155;243;66352;-61
2023/07/18 11:03:45;;;;;;;;;;;;;;;26.72;64.39;97016.41;576135;246;68726;-62
2023/07/18 11:06:14;;;;;;;;;;;;;;;26.70;64.34;97010.52;576171;246;63045;-61
2023/07/18 11:08:43;;;;;;;;;;;;;;;26.73;64.37;97013.38;580707;243;66610;-60
2023/07/18 11:11:10;;;;;;;;;;;;;;;26.74;64.13;96998.81;582376;243;68731;-62
2023/07/18 11:13:40;;;;;;;;;;;;;;;26.74;64.19;96998.81;582424;243;62911;-62
2023/07/18 11:16:08;;;;;;;;;;;;;;;26.76;64.08;97011.97;582473;243;66737;-62
2023/07/18 11:18:37;;;;;;;;;;;;;;;26.76;64.07;97009.27;582397;243;66641;-61
2023/07/18 11:21:06;;;;;;;;;;;;;;;26.77;63.94;97006.28;582446;243;63028;-61
2023/07/18 11:23:34;;;;;;;;;;;;;;;26.76;63.85;96999.31;582275;242;68820;-62
2023/07/18 11:26:04;;;;;;;;;;;;;;;26.78;63.80;96999.77;582341;243;68650;-62
2023/07/18 11:28:35;;;;;;;;;;;;;;;26.79;63.82;96998.69;581578;243;65134;-62
2023/07/18 11:31:02;;;;;;;;;;;;;;;26.79;63.86;96989.78;582435;243;68964;-61
2023/07/18 11:33:32;;;;;;;;;;;;;;;26.80;63.95;96994.09;582393;243;68713;-61
2023/07/18 11:35:59;;;;;;;;;;;;;;;26.82;63.95;96996.45;583973;240;62970;-62
2023/07/18 11:38:30;;;;;;;;;;;;;;;26.79;63.97;96995.99;582189;240;66743;-61
2023/07/18 11:40:59;;;;;;;;;;;;;;;26.79;63.87;96995.99;581825;243;68695;-62
2023/07/18 11:43:28;;;;;;;;;;;;;;;26.82;63.97;96982.97;581548;243;65089;-62
2023/07/18 11:46:01;;;;;;;;;;;;;;;26.83;63.98;96985.38;581747;243;66735;-69
2023/07/18 11:48:27;;;;;;;;;;;;;;;26.85;64.14;96987.78;581991;243;66460;-63
2023/07/18 11:50:55;;;;;;;;;;;;;;;26.85;64.28;96983.17;582258;243;65076;-63
2023/07/18 11:53:26;;;;;;;;;;;;;;;26.78;64.30;96978.20;582249;243;68884;-67
2023/07/18 11:56:00;;;;;;;;;;;;;;;26.75;64.51;96978.83;582141;243;66926;-66
2023/07/18 11:58:27;;;;;;;;;;;;;;;26.76;64.54;96980.44;579706;243;65128;-66
2023/07/18 12:00:56;;;;;;;;;;;;;;;26.79;64.25;96982.52;581678;242;66403;-67
2023/07/18 12:03:24;;;;;;;;;;;;;;;26.81;64.19;96984.88;582048;243;66639;-67
2023/07/18 12:05:51;;;;;;;;;;;;;;;26.84;64.66;96980.77;582189;243;62954;-66
2023/07/18 12:08:19;;;;;;;;;;;;;;;26.86;64.94;96989.36;582292;243;68694;-66
2023/07/18 12:10:47;;;;;;;;;;;;;;;26.88;64.68;96981.76;582297;243;68587;-67
2023/07/18 12:13:16;;;;;;;;;;;;;;;26.88;64.36;96981.76;582287;243;65216;-66
2023/07/18 12:15:43;;;;;;;;;;;;;;;26.89;64.50;96986.03;582199;243;68575;-67
2023/07/18 12:18:12;;;;;;;;;;;;;;;26.89;64.41;96980.64;582226;243;68580;-66
2023/07/18 12:20:39;;;;;;;;;;;;;;;26.89;64.22;96977.95;582172;243;65133;-67
2023/07/18 12:23:08;;;;;;;;;;;;;;;26.90;64.18;96963.34;583488;239;69046;-66
2023/07/18 12:25:38;;;;;;;;;;;;;;;26.90;64.43;96968.73;572798;241;68601;-67
2023/07/18 12:28:06;;;;;;;;;;;;;;;26.91;64.51;96967.65;580002;239;65061;-70
2023/07/18 12:30:34;;;;;;;;;;;;;;;26.91;64.63;96973.05;580863;241;68760;-68
2023/07/18 12:33:01;;;;;;;;;;;;;;;26.93;64.46;96963.55;581583;239;69320;-68
2023/07/18 12:35:29;;;;;;;;;;;;;;;26.95;64.48;96966.70;578382;242;64893;-67
2023/07/18 12:37:56;;;;;;;;;;;;;;;26.97;64.09;96969.09;578154;240;68956;-68
2023/07/18 12:40:25;;;;;;;;;;;;;;;26.98;63.78;96965.28;577402;242;66593;-68
2023/07/18 12:42:54;;;;;;;;;;;;;;;26.98;63.64;96970.68;578872;242;62950;-67
2023/07/18 12:45:23;;;;;;;;;;;;;;;27.00;63.88;96968.47;579624;241;70599;-68
2023/07/18 12:47:50;;;;;;;;;;;;;;;27.00;63.79;96963.87;575810;240;66500;-67
2023/07/18 12:50:18;;;;;;;;;;;;;;;27.01;63.63;96964.69;577422;243;63031;-67
2023/07/18 12:52:45;;;;;;;;;;;;;;;27.02;63.82;96963.57;578091;242;66427;-68